createdAt,value
2022-11-12T00:02:17.863Z,28.73
2022-11-12T00:05:04.892Z,26.00
2022-11-12T00:07:51.703Z,23.47
2022-11-12T00:10:38.407Z,22.50
2022-11-12T00:13:26.888Z,21.20
2022-11-12T00:16:13.630Z,16.33
2022-11-12T00:19:00.397Z,20.70
2022-11-12T00:21:47.305Z,21.27
2022-11-12T00:24:34.039Z,17.03
2022-11-12T00:27:21.109Z,18.97
2022-11-12T00:30:10.636Z,22.20
2022-11-12T00:32:57.541Z,20.13
2022-11-12T00:35:44.561Z,27.73
2022-11-12T00:38:32.048Z,20.03
2022-11-12T00:41:19.278Z,20.97
2022-11-12T00:44:06.775Z,17.57
2022-11-12T00:46:55.241Z,17.83
2022-11-12T00:49:42.205Z,16.97
2022-11-12T00:52:29.622Z,18.20
2022-11-12T00:55:16.698Z,20.67
2022-11-12T00:58:03.750Z,20.50
2022-11-12T01:00:50.584Z,19.20
2022-11-12T01:03:39.888Z,23.97
2022-11-12T01:06:27.499Z,19.17
2022-11-12T01:09:14.810Z,17.60
2022-11-12T01:12:01.984Z,16.40
2022-11-12T01:14:49.028Z,17.10
2022-11-12T01:17:35.864Z,17.40
2022-11-12T01:20:24.388Z,20.70
2022-11-12T01:23:11.220Z,24.63
2022-11-12T01:25:58.136Z,21.63
2022-11-12T01:28:45.308Z,24.03
2022-11-12T01:31:34.653Z,30.63
2022-11-12T01:34:21.609Z,34.87
2022-11-12T01:37:09.989Z,33.10
2022-11-12T01:39:57.125Z,33.37
2022-11-12T01:42:44.214Z,31.13
2022-11-12T01:45:31.362Z,27.93
2022-11-12T01:48:28.061Z,30.10
2022-11-12T01:51:16.592Z,24.07
2022-11-12T01:54:10.836Z,26.20
2022-11-12T01:57:00.608Z,28.10
2022-11-12T01:59:50.632Z,24.63
2022-11-12T02:02:39.141Z,24.93
2022-11-12T02:05:28.011Z,24.63
2022-11-12T02:08:15.400Z,39.73
2022-11-12T02:11:13.868Z,27.27
2022-11-12T02:14:01.490Z,26.20
2022-11-12T02:16:50.337Z,22.17
2022-11-12T02:19:39.008Z,22.70
2022-11-12T02:22:27.070Z,22.90
2022-11-12T02:25:17.924Z,21.57
2022-11-12T02:28:07.960Z,23.93
2022-11-12T02:30:55.151Z,19.13
2022-11-12T02:33:43.284Z,21.27
2022-11-12T02:36:30.347Z,24.93
2022-11-12T02:39:18.872Z,24.67
2022-11-12T02:42:06.863Z,21.07
2022-11-12T02:44:53.873Z,23.70
2022-11-12T02:47:40.945Z,21.47
2022-11-12T02:50:28.189Z,26.03
2022-11-12T02:53:15.360Z,23.13
2022-11-12T02:56:03.868Z,20.50
2022-11-12T02:58:50.791Z,20.67
2022-11-12T03:01:37.679Z,19.00
2022-11-12T03:04:24.660Z,19.40
2022-11-12T03:07:11.529Z,21.50
2022-11-12T03:09:58.442Z,21.60
2022-11-12T03:12:47.153Z,24.50
2022-11-12T03:15:34.080Z,23.87
2022-11-12T03:18:20.892Z,25.63
2022-11-12T03:21:08.166Z,22.90
2022-11-12T03:23:55.059Z,20.60
2022-11-12T03:26:41.871Z,21.57
2022-11-12T03:29:29.929Z,20.87
2022-11-12T03:32:16.776Z,22.37
2022-11-12T03:35:03.553Z,20.80
2022-11-12T03:37:50.763Z,21.33
2022-11-12T03:40:37.990Z,20.67
2022-11-12T03:43:24.690Z,20.00
2022-11-12T03:46:13.469Z,21.77
2022-11-12T03:49:02.617Z,23.50
2022-11-12T03:51:49.636Z,22.30
2022-11-12T03:54:36.377Z,22.57
2022-11-12T03:57:23.285Z,20.93
2022-11-12T04:00:13.197Z,18.67
2022-11-12T04:03:01.581Z,20.47
2022-11-12T04:06:05.602Z,21.50
2022-11-12T04:09:12.941Z,22.17
2022-11-12T04:12:13.587Z,19.60
2022-11-12T04:18:20.571Z,18.57
2022-11-12T04:21:32.923Z,18.13
2022-11-12T04:24:38.976Z,18.63
2022-11-12T04:27:27.885Z,19.97
2022-11-12T04:30:16.545Z,20.20
2022-11-12T04:33:04.788Z,16.10
2022-11-12T04:35:51.778Z,15.37
2022-11-12T04:38:38.549Z,17.27
2022-11-12T04:41:42.834Z,17.10
2022-11-12T04:44:47.491Z,17.20
2022-11-12T04:47:37.367Z,15.27
2022-11-12T04:50:25.842Z,16.00
2022-11-12T04:53:12.605Z,16.07
2022-11-12T04:56:00.475Z,13.90
2022-11-12T04:58:47.778Z,13.53
2022-11-12T05:01:34.796Z,17.63
2022-11-12T05:04:21.904Z,15.37
2022-11-12T05:07:11.041Z,14.70
2022-11-12T05:09:57.923Z,14.57
2022-11-12T05:12:45.473Z,14.50
2022-11-12T05:15:32.624Z,13.13
2022-11-12T05:18:21.924Z,12.37
2022-11-12T05:21:22.729Z,15.37
2022-11-12T05:24:22.418Z,13.40
2022-11-12T05:27:20.424Z,13.87
2022-11-12T05:30:08.410Z,15.20
2022-11-12T05:32:55.134Z,14.47
2022-11-12T05:35:41.996Z,11.40
2022-11-12T05:38:29.015Z,12.73
2022-11-12T05:41:20.324Z,11.93
2022-11-12T05:44:07.841Z,13.27
2022-11-12T05:46:54.915Z,14.27
2022-11-12T05:49:41.509Z,11.60
2022-11-12T05:52:28.295Z,11.13
2022-11-12T05:55:15.201Z,11.53
2022-11-12T05:58:07.160Z,11.37
2022-11-12T06:00:54.128Z,13.13
2022-11-12T06:03:41.173Z,12.60
2022-11-12T06:06:28.330Z,12.67
2022-11-12T06:09:15.096Z,11.83
2022-11-12T06:12:06.264Z,13.57
2022-11-12T06:14:54.661Z,12.13
2022-11-12T06:17:41.596Z,11.40
2022-11-12T06:20:28.550Z,11.47
2022-11-12T06:23:15.530Z,11.23
2022-11-12T06:26:02.938Z,11.30
2022-11-12T06:28:50.771Z,10.07
2022-11-12T06:31:39.239Z,11.60
2022-11-12T06:34:26.349Z,14.17
2022-11-12T06:37:13.368Z,15.53
2022-11-12T06:40:00.576Z,14.23
2022-11-12T06:42:47.305Z,13.63
2022-11-12T22:32:00.741Z,21.93
2022-11-12T22:34:49.560Z,20.30
2022-11-12T22:37:37.240Z,21.23
2022-11-12T22:40:24.622Z,21.60
2022-11-12T22:43:12.075Z,21.37
2022-11-12T22:46:05.221Z,26.17
2022-11-12T22:48:54.240Z,20.93
2022-11-12T22:51:41.200Z,22.13
2022-11-12T22:54:28.325Z,22.63
2022-11-12T22:57:15.192Z,18.40
2022-11-12T23:00:02.336Z,20.37
2022-11-12T23:02:49.356Z,17.60
2022-11-12T23:05:38.178Z,18.93
2022-11-12T23:08:39.989Z,17.60
2022-11-12T23:11:27.908Z,16.97
2022-11-12T23:14:15.216Z,17.53
2022-11-12T23:17:03.850Z,19.33
2022-11-12T23:19:51.463Z,15.53
2022-11-12T23:22:39.939Z,17.50
2022-11-12T23:25:27.160Z,16.27
2022-11-12T23:28:14.261Z,14.93
2022-11-12T23:31:01.437Z,17.87
2022-11-12T23:33:49.999Z,15.87
2022-11-12T23:36:36.667Z,13.53
2022-11-12T23:39:24.929Z,14.63
2022-11-12T23:42:11.672Z,21.27
2022-11-12T23:44:59.515Z,18.40
2022-11-12T23:47:46.366Z,22.43
2022-11-12T23:50:33.550Z,22.20
2022-11-12T23:53:23.874Z,18.63
2022-11-12T23:56:14.544Z,20.07
2022-11-12T23:59:01.377Z,16.73
